Terminal Aerodrome Forecast
Issued by NWS

Home | Current Version | Previous Version | Text Only | Print | Product List | Glossary On
Versions: 1 2 3 4 5 6 7 8 9 10 11 12 13 14 15 16 17 18 19 20
000
FTUS43 KEAX 301121
TAFSTJ
TAF
KSTJ 301121Z 3012/3112 VRB03KT 3SM BR OVC011
      TEMPO 3012/3013 1SM BR BKN004
     FM301500 12004KT P6SM SCT015
     FM301800 12005KT P6SM SKC=

USA.gov is the U.S. government's official web portal to all federal, state and local government web resources and services.